createdAt,value
2022-10-29T00:00:32.905Z,16
2022-10-29T00:01:32.928Z,16
2022-10-29T00:02:32.948Z,16
2022-10-29T00:03:32.874Z,16
2022-10-29T00:04:32.862Z,16
2022-10-29T00:05:32.857Z,16
2022-10-29T00:06:32.844Z,16
2022-10-29T00:07:32.834Z,16
2022-10-29T00:08:32.820Z,16
2022-10-29T00:09:32.809Z,16
2022-10-29T00:10:32.800Z,16
2022-10-29T00:11:32.785Z,16
2022-10-29T00:12:32.776Z,16
2022-10-29T00:13:32.768Z,16
2022-10-29T00:14:32.754Z,16
2022-10-29T00:15:32.745Z,16
2022-10-29T00:16:32.734Z,16
2022-10-29T00:17:32.720Z,16
2022-10-29T00:18:32.710Z,16
2022-10-29T00:19:32.702Z,16
2022-10-29T00:20:32.693Z,16
2022-10-29T00:21:32.679Z,16
2022-10-29T00:22:32.669Z,16
2022-10-29T00:23:32.660Z,16
2022-10-29T00:24:32.648Z,16
2022-10-29T00:25:32.636Z,16
2022-10-29T00:26:32.632Z,16
2022-10-29T00:27:32.628Z,16
2022-10-29T00:28:32.607Z,16
2022-10-29T00:29:32.598Z,16
2022-10-29T00:30:32.582Z,16
2022-10-29T00:31:32.576Z,16
2022-10-29T00:32:32.567Z,16
2022-10-29T00:33:32.565Z,16
2022-10-29T00:34:32.538Z,16
2022-10-29T00:35:32.541Z,16
2022-10-29T00:36:32.515Z,16
2022-10-29T00:37:32.515Z,16
2022-10-29T00:38:32.497Z,16
2022-10-29T00:39:32.506Z,16
2022-10-29T00:40:32.475Z,16
2022-10-29T00:41:32.465Z,16
2022-10-29T00:42:32.457Z,16
2022-10-29T00:43:32.438Z,16
2022-10-29T00:44:32.432Z,16
2022-10-29T00:45:32.420Z,16
2022-10-29T00:46:32.419Z,16
2022-10-29T00:47:32.397Z,16
2022-10-29T00:48:32.393Z,16
2022-10-29T00:49:32.385Z,16
2022-10-29T00:50:32.373Z,16
2022-10-29T00:51:32.363Z,16
2022-10-29T00:52:32.352Z,16
2022-10-29T00:53:32.335Z,16
2022-10-29T00:54:32.334Z,16
2022-10-29T00:55:32.314Z,16
2022-10-29T00:56:32.309Z,16
2022-10-29T00:57:32.295Z,16
2022-10-29T00:58:32.282Z,16
2022-10-29T00:59:32.273Z,16
2022-10-29T01:00:32.257Z,16
2022-10-29T01:01:32.249Z,16
2022-10-29T01:02:32.237Z,16
2022-10-29T01:03:32.230Z,16
2022-10-29T01:04:32.234Z,16
2022-10-29T01:05:32.204Z,16
2022-10-29T01:06:32.215Z,16
2022-10-29T01:07:32.186Z,16
2022-10-29T01:08:32.176Z,16
2022-10-29T01:09:32.171Z,16
2022-10-29T01:10:32.149Z,16
2022-10-29T01:11:32.151Z,16
2022-10-29T01:12:32.134Z,16
2022-10-29T01:13:32.125Z,16
2022-10-29T01:14:32.109Z,16
2022-10-29T01:15:32.102Z,16
2022-10-29T01:16:32.105Z,16
2022-10-29T01:17:32.079Z,16
2022-10-29T01:18:32.067Z,16
2022-10-29T01:19:32.055Z,16
2022-10-29T01:20:32.051Z,16
2022-10-29T01:21:32.051Z,16
2022-10-29T01:22:32.024Z,16
2022-10-29T01:23:32.015Z,16
2022-10-29T01:24:32.005Z,16
2022-10-29T01:25:31.998Z,16
2022-10-29T01:26:31.987Z,16
2022-10-29T01:27:31.982Z,16
2022-10-29T01:28:31.960Z,16
2022-10-29T01:29:31.953Z,16
2022-10-29T01:30:31.946Z,16
2022-10-29T01:31:31.926Z,16
2022-10-29T01:32:31.915Z,16
2022-10-29T01:33:31.910Z,16
2022-10-29T01:34:31.893Z,16
2022-10-29T01:35:31.886Z,16
2022-10-29T01:36:31.873Z,16
2022-10-29T01:37:31.861Z,16
2022-10-29T01:38:31.858Z,16
2022-10-29T01:39:31.838Z,16
2022-10-29T01:40:31.827Z,16
2022-10-29T01:41:31.835Z,16
2022-10-29T01:42:31.808Z,16
2022-10-29T01:43:31.802Z,16
2022-10-29T01:44:31.793Z,16
2022-10-29T01:45:31.777Z,16
2022-10-29T01:46:31.769Z,16
2022-10-29T01:47:31.764Z,16
2022-10-29T01:48:31.749Z,16
2022-10-29T01:49:31.739Z,16
2022-10-29T01:50:31.734Z,16
2022-10-29T01:51:31.712Z,16
2022-10-29T01:52:31.703Z,16
2022-10-29T01:53:31.691Z,16
2022-10-29T01:54:31.681Z,16
2022-10-29T01:55:31.672Z,16
2022-10-29T01:56:31.661Z,16
2022-10-29T01:57:31.647Z,16
2022-10-29T01:58:31.640Z,16
2022-10-29T01:59:31.627Z,16
2022-10-29T02:00:31.620Z,16
2022-10-29T02:01:31.644Z,16
2022-10-29T02:02:31.602Z,16
2022-10-29T02:03:31.589Z,16
2022-10-29T02:04:31.574Z,20
2022-10-29T02:05:31.561Z,16
2022-10-29T02:06:31.552Z,16
2022-10-29T02:07:31.543Z,16
2022-10-29T02:08:31.532Z,16
2022-10-29T02:09:31.521Z,16
2022-10-29T02:10:31.512Z,20
2022-10-29T02:11:31.495Z,16
2022-10-29T02:12:31.490Z,16
2022-10-29T02:13:31.478Z,16
2022-10-29T02:14:31.486Z,16
2022-10-29T02:15:31.461Z,16
2022-10-29T02:16:31.446Z,16
2022-10-29T02:17:31.433Z,16
2022-10-29T02:18:31.433Z,16
2022-10-29T02:19:31.422Z,16
2022-10-29T02:20:31.398Z,16
2022-10-29T02:21:31.397Z,16
2022-10-29T02:22:31.375Z,16
2022-10-29T02:23:31.367Z,16
2022-10-29T02:24:31.360Z,16
2022-10-29T02:25:31.341Z,16
2022-10-29T02:26:31.373Z,16
2022-10-29T02:27:31.328Z,16
2022-10-29T02:28:31.315Z,16
2022-10-29T02:29:31.301Z,16
2022-10-29T02:30:31.293Z,16
2022-10-29T02:31:31.277Z,16
2022-10-29T02:32:31.266Z,16
2022-10-29T02:33:31.256Z,16
2022-10-29T02:34:31.248Z,16
2022-10-29T02:35:31.236Z,16
2022-10-29T02:36:31.234Z,16
2022-10-29T02:37:31.216Z,16
2022-10-29T02:38:31.203Z,16
2022-10-29T02:39:31.194Z,16
2022-10-29T02:40:31.179Z,16
2022-10-29T02:41:31.187Z,16
2022-10-29T02:42:31.157Z,16
2022-10-29T02:43:31.158Z,16
2022-10-29T02:44:31.140Z,16
2022-10-29T02:45:31.123Z,16
2022-10-29T02:46:31.118Z,16
2022-10-29T02:47:31.105Z,16
2022-10-29T02:48:31.100Z,16
2022-10-29T02:49:31.084Z,16
2022-10-29T02:50:31.076Z,16
2022-10-29T02:51:31.062Z,16
2022-10-29T02:52:31.051Z,16
2022-10-29T02:53:31.056Z,16
2022-10-29T02:54:31.029Z,16
2022-10-29T02:55:31.022Z,16
2022-10-29T02:56:31.006Z,16
2022-10-29T02:57:30.994Z,16
2022-10-29T02:58:30.982Z,16
2022-10-29T02:59:30.986Z,16
2022-10-29T03:00:30.966Z,28
2022-10-29T03:01:30.950Z,28
2022-10-29T03:02:30.945Z,28
2022-10-29T03:03:30.934Z,28
2022-10-29T03:04:30.921Z,28
2022-10-29T03:05:30.913Z,28
2022-10-29T03:06:30.905Z,28
2022-10-29T03:07:30.888Z,28
2022-10-29T03:08:30.878Z,28
2022-10-29T03:09:30.868Z,28
2022-10-29T03:10:30.859Z,28
2022-10-29T03:11:30.853Z,28
2022-10-29T03:12:30.838Z,28
2022-10-29T03:13:30.822Z,28
2022-10-29T03:14:30.812Z,24
2022-10-29T03:15:30.807Z,24
2022-10-29T03:16:30.802Z,24
2022-10-29T03:17:30.785Z,24
2022-10-29T03:18:30.775Z,28
2022-10-29T03:19:30.761Z,24
2022-10-29T03:20:30.750Z,24
2022-10-29T03:21:30.746Z,24
2022-10-29T03:22:30.729Z,24
2022-10-29T03:23:30.722Z,24
2022-10-29T03:24:30.711Z,24
2022-10-29T03:25:30.697Z,24
2022-10-29T03:26:30.687Z,24
2022-10-29T03:27:30.677Z,24
2022-10-29T03:28:30.665Z,24
2022-10-29T03:29:30.660Z,24
2022-10-29T03:30:30.650Z,24
2022-10-29T03:31:30.635Z,24
2022-10-29T03:32:30.627Z,24
2022-10-29T03:33:30.621Z,24
2022-10-29T03:34:30.604Z,28
2022-10-29T03:35:30.592Z,24
2022-10-29T03:36:30.590Z,24
2022-10-29T03:37:30.575Z,24
2022-10-29T03:38:30.563Z,24
2022-10-29T03:39:30.558Z,24
2022-10-29T03:40:30.546Z,24
2022-10-29T03:41:30.532Z,24
2022-10-29T03:42:30.533Z,24
2022-10-29T03:43:30.524Z,24
2022-10-29T03:44:30.501Z,24
2022-10-29T03:45:30.491Z,24
2022-10-29T03:46:30.486Z,24
2022-10-29T03:47:30.474Z,24
2022-10-29T03:48:30.460Z,24
2022-10-29T03:49:30.453Z,24
2022-10-29T03:50:30.436Z,24
2022-10-29T03:51:30.429Z,24
2022-10-29T03:52:30.424Z,24
2022-10-29T03:53:30.410Z,24
2022-10-29T03:54:30.398Z,24
2022-10-29T03:55:30.387Z,24
2022-10-29T03:56:30.380Z,24
2022-10-29T03:57:30.368Z,24
2022-10-29T03:58:30.354Z,28
2022-10-29T03:59:30.347Z,28
2022-10-29T04:00:30.341Z,28
2022-10-29T04:01:30.323Z,24
2022-10-29T04:02:30.312Z,24
2022-10-29T04:03:30.313Z,24
2022-10-29T04:04:30.293Z,24
2022-10-29T04:05:30.279Z,24
2022-10-29T04:06:30.287Z,24
2022-10-29T04:07:30.259Z,24
2022-10-29T04:08:30.251Z,24
2022-10-29T04:09:30.239Z,24
2022-10-29T04:10:30.240Z,28
2022-10-29T04:11:30.220Z,24
2022-10-29T04:12:30.228Z,24
2022-10-29T04:13:30.206Z,28
2022-10-29T04:14:30.195Z,28
2022-10-29T04:15:30.180Z,24
2022-10-29T04:16:30.168Z,28
2022-10-29T04:17:30.162Z,24
2022-10-29T04:18:30.148Z,24
2022-10-29T04:19:30.142Z,28
2022-10-29T04:20:30.137Z,24
2022-10-29T04:21:30.114Z,28
2022-10-29T04:25:30.088Z,24
2022-10-29T04:27:30.074Z,24
2022-10-29T04:28:30.057Z,24
2022-10-29T04:29:30.043Z,24
2022-10-29T04:30:30.035Z,28
2022-10-29T04:31:30.014Z,24
2022-10-29T04:32:30.011Z,28
2022-10-29T04:33:30.002Z,28
2022-10-29T04:34:29.983Z,24
2022-10-29T04:35:29.972Z,24
2022-10-29T04:36:29.962Z,24
2022-10-29T04:37:29.952Z,24
2022-10-29T04:38:29.953Z,28
2022-10-29T04:39:29.952Z,28
2022-10-29T04:40:29.920Z,28
2022-10-29T04:41:29.910Z,28
2022-10-29T04:42:29.913Z,28
2022-10-29T04:43:29.917Z,28
2022-10-29T04:44:29.890Z,24
2022-10-29T04:45:29.904Z,28
2022-10-29T04:46:29.865Z,24
2022-10-29T04:47:29.858Z,24
2022-10-29T04:48:29.851Z,28
2022-10-29T04:49:29.859Z,24
2022-10-29T04:50:29.816Z,24
2022-10-29T04:51:29.813Z,24
2022-10-29T04:52:29.809Z,24
2022-10-29T04:53:29.798Z,28
2022-10-29T04:54:29.798Z,24
2022-10-29T04:55:29.770Z,24
2022-10-29T04:56:29.765Z,28
2022-10-29T04:57:29.752Z,24
2022-10-29T04:58:29.744Z,24
2022-10-29T04:59:29.760Z,24
2022-10-29T05:00:29.713Z,28
2022-10-29T05:01:29.714Z,28
2022-10-29T05:02:29.701Z,28
2022-10-29T05:03:29.687Z,24
2022-10-29T05:04:29.669Z,24
2022-10-29T05:05:29.670Z,28
2022-10-29T05:06:29.658Z,28
2022-10-29T05:07:29.661Z,24
2022-10-29T05:08:29.637Z,28
2022-10-29T05:09:29.631Z,28
2022-10-29T05:10:29.609Z,28
2022-10-29T05:11:29.618Z,28
2022-10-29T05:12:29.594Z,28
2022-10-29T05:13:29.603Z,28
2022-10-29T05:14:29.578Z,28
2022-10-29T05:15:29.566Z,28
2022-10-29T05:16:29.572Z,28
2022-10-29T05:17:29.546Z,28
2022-10-29T05:18:29.530Z,28
2022-10-29T05:19:29.532Z,24
2022-10-29T05:20:29.506Z,28
2022-10-29T05:21:29.525Z,28
2022-10-29T05:22:29.544Z,28
2022-10-29T05:23:29.490Z,24
2022-10-29T05:24:29.467Z,28
2022-10-29T05:25:29.461Z,28
2022-10-29T05:26:29.451Z,28
2022-10-29T05:27:29.431Z,28
2022-10-29T05:28:29.429Z,28
2022-10-29T05:29:29.423Z,28
2022-10-29T05:30:29.411Z,28
2022-10-29T05:31:29.413Z,24
2022-10-29T05:32:29.393Z,28
2022-10-29T05:33:29.387Z,28
2022-10-29T05:34:29.369Z,28
2022-10-29T05:35:29.356Z,28
2022-10-29T05:36:29.347Z,24
2022-10-29T05:37:29.353Z,24
2022-10-29T05:38:29.334Z,24
2022-10-29T05:39:29.355Z,24
2022-10-29T05:40:29.362Z,24
2022-10-29T05:41:29.289Z,24
2022-10-29T05:42:29.287Z,24
2022-10-29T05:43:29.278Z,24
2022-10-29T05:44:29.306Z,24
2022-10-29T05:45:29.263Z,24
2022-10-29T05:46:29.292Z,24
2022-10-29T05:47:36.883Z,28
2022-10-29T05:48:29.245Z,28
2022-10-29T05:49:29.249Z,28
2022-10-29T05:50:29.238Z,24
2022-10-29T05:51:29.227Z,28
2022-10-29T05:52:29.195Z,28
2022-10-29T05:53:29.179Z,28
2022-10-29T05:54:29.189Z,32
2022-10-29T05:55:29.185Z,32
2022-10-29T05:56:29.259Z,36
2022-10-29T05:57:29.138Z,28
2022-10-29T05:58:29.125Z,28
2022-10-29T05:59:29.109Z,28
2022-10-29T06:00:29.328Z,32
2022-10-29T06:01:29.082Z,32
2022-10-29T06:02:29.076Z,36
2022-10-29T06:03:29.063Z,40
2022-10-29T06:04:29.049Z,44
2022-10-29T06:05:29.046Z,48
2022-10-29T06:06:29.031Z,56
2022-10-29T06:07:29.023Z,60
2022-10-29T06:08:29.012Z,64
2022-10-29T06:09:29.003Z,72
2022-10-29T06:10:28.998Z,76
2022-10-29T06:11:28.986Z,80
2022-10-29T06:12:28.968Z,92
2022-10-29T06:13:28.961Z,96
2022-10-29T06:14:28.950Z,104
2022-10-29T06:15:28.938Z,112
2022-10-29T06:16:28.928Z,120
2022-10-29T06:17:28.922Z,132
2022-10-29T06:18:28.910Z,140
2022-10-29T06:19:28.899Z,136
2022-10-29T06:20:28.889Z,144
2022-10-29T06:21:28.874Z,156
2022-10-29T06:22:28.866Z,168
2022-10-29T06:23:28.867Z,180
2022-10-29T06:24:28.877Z,192
2022-10-29T06:25:28.841Z,208
2022-10-29T06:26:28.827Z,224
2022-10-29T06:27:28.823Z,240
2022-10-29T06:28:28.803Z,252
2022-10-29T06:29:28.798Z,264
2022-10-29T06:30:28.789Z,280
2022-10-29T06:31:28.781Z,296
2022-10-29T06:32:28.769Z,316
2022-10-29T06:33:28.751Z,336
2022-10-29T06:34:28.748Z,352
2022-10-29T06:35:28.749Z,372
2022-10-29T06:36:28.721Z,388
2022-10-29T06:37:28.722Z,408
2022-10-29T06:38:28.708Z,432
2022-10-29T06:39:28.692Z,452
2022-10-29T06:40:28.701Z,476
2022-10-29T06:41:28.671Z,496
2022-10-29T06:42:28.658Z,512
2022-10-29T06:43:28.659Z,532
2022-10-29T06:44:28.636Z,548
2022-10-29T06:45:28.634Z,568
2022-10-29T06:46:28.623Z,592
2022-10-29T06:47:28.603Z,616
2022-10-29T06:48:28.605Z,640
2022-10-29T06:49:28.590Z,668
2022-10-29T06:50:28.573Z,696
2022-10-29T06:51:28.572Z,724
2022-10-29T06:52:28.570Z,760
2022-10-29T06:53:28.557Z,800
2022-10-29T06:54:28.526Z,836
2022-10-29T06:55:28.528Z,876
2022-10-29T06:56:28.508Z,920
2022-10-29T06:57:28.507Z,964
2022-10-29T06:58:28.484Z,1004
2022-10-29T06:59:28.482Z,1044
2022-10-29T07:00:28.461Z,1096
2022-10-29T07:01:28.457Z,1156
2022-10-29T07:02:28.445Z,1228
2022-10-29T07:03:28.436Z,1308
2022-10-29T07:04:28.418Z,1348
2022-10-29T07:05:28.417Z,1360
2022-10-29T07:06:28.406Z,1360
2022-10-29T07:07:28.393Z,1368
2022-10-29T07:08:28.378Z,1372
2022-10-29T07:09:28.372Z,1368
2022-10-29T07:10:28.357Z,1356
2022-10-29T07:11:28.359Z,1304
2022-10-29T07:12:28.338Z,1268
2022-10-29T07:13:28.326Z,1220
2022-10-29T07:14:28.311Z,1184
2022-10-29T07:15:28.304Z,1168
2022-10-29T07:16:28.312Z,1168
2022-10-29T07:17:28.281Z,1160
2022-10-29T07:18:28.278Z,1176
2022-10-29T07:19:28.259Z,1192
2022-10-29T07:20:28.248Z,1224
2022-10-29T07:21:28.235Z,1236
2022-10-29T07:22:28.225Z,1256
2022-10-29T07:24:28.206Z,1296
2022-10-29T07:25:28.199Z,1316
2022-10-29T07:26:28.193Z,1332
2022-10-29T07:27:28.179Z,1332
2022-10-29T07:28:28.164Z,1328
2022-10-29T07:29:28.150Z,1376
2022-10-29T07:30:28.154Z,1464
2022-10-29T07:31:28.131Z,1544
2022-10-29T07:32:28.125Z,1620
2022-10-29T07:33:28.113Z,1704
2022-10-29T07:34:28.098Z,1800
2022-10-29T07:35:28.097Z,1844
2022-10-29T07:36:28.076Z,1888
2022-10-29T07:37:28.081Z,1916
2022-10-29T07:38:28.057Z,1976
2022-10-29T07:39:28.041Z,2028
2022-10-29T07:40:28.039Z,2120
2022-10-29T07:41:28.027Z,2192
2022-10-29T07:42:28.015Z,2252
2022-10-29T07:43:28.030Z,2328
2022-10-29T07:44:28.005Z,2448
2022-10-29T07:45:27.993Z,2564
2022-10-29T07:46:27.977Z,2620
2022-10-29T07:47:27.964Z,2708
2022-10-29T07:48:27.955Z,2828
2022-10-29T07:49:27.950Z,2912
2022-10-29T07:50:27.931Z,3024
2022-10-29T07:51:27.917Z,3092
2022-10-29T07:52:27.902Z,3148
2022-10-29T07:53:27.899Z,3224
2022-10-29T07:54:27.961Z,3300
2022-10-29T07:56:27.889Z,3396
2022-10-29T07:57:27.856Z,3400
2022-10-29T07:58:27.842Z,3412
2022-10-29T07:59:27.882Z,3512
2022-10-29T08:00:27.810Z,3600
2022-10-29T08:01:27.803Z,3640
2022-10-29T08:02:27.805Z,3560
2022-10-29T08:03:27.793Z,3440
2022-10-29T08:04:27.784Z,3360
2022-10-29T08:05:27.757Z,3448
2022-10-29T08:06:27.749Z,3668
2022-10-29T08:07:27.743Z,3748
2022-10-29T08:08:27.746Z,3752
2022-10-29T08:09:27.718Z,3728
2022-10-29T08:10:27.724Z,3648
2022-10-29T08:11:27.713Z,3600
2022-10-29T08:12:27.687Z,3596
2022-10-29T08:13:27.678Z,3536
2022-10-29T08:14:27.670Z,3536
2022-10-29T08:15:27.652Z,3616
2022-10-29T08:16:27.638Z,3696
2022-10-29T08:17:27.631Z,3792
2022-10-29T08:18:27.619Z,3924
2022-10-29T08:19:27.614Z,3996
2022-10-29T08:20:27.605Z,4116
2022-10-29T08:21:27.589Z,4224
2022-10-29T08:22:27.580Z,4264
2022-10-29T08:23:27.563Z,4304
2022-10-29T08:24:27.552Z,4372
2022-10-29T08:25:27.545Z,4420
2022-10-29T08:26:27.554Z,4472
2022-10-29T08:27:27.528Z,4464
2022-10-29T08:28:27.523Z,4528
2022-10-29T08:29:27.510Z,4556
2022-10-29T08:30:27.500Z,4376
2022-10-29T08:31:27.483Z,4352
2022-10-29T08:32:27.476Z,4320
2022-10-29T08:33:27.500Z,4372
2022-10-29T08:34:27.468Z,4384
2022-10-29T08:35:27.480Z,4372
2022-10-29T08:36:27.433Z,4264
2022-10-29T08:37:27.417Z,3940
2022-10-29T08:38:27.406Z,3692
2022-10-29T08:39:27.404Z,3540
2022-10-29T08:40:27.393Z,3384
2022-10-29T08:41:27.380Z,3272
2022-10-29T08:42:27.396Z,3108
2022-10-29T08:43:27.385Z,2896
2022-10-29T08:44:27.388Z,2800
2022-10-29T08:45:27.362Z,2740
2022-10-29T08:46:27.330Z,2660
2022-10-29T08:47:27.328Z,2644
2022-10-29T08:48:27.307Z,2688
2022-10-29T08:49:27.313Z,2780
2022-10-29T08:50:27.289Z,2796
2022-10-29T08:51:27.292Z,2744
2022-10-29T08:52:27.256Z,2688
2022-10-29T08:53:27.948Z,2640
2022-10-29T08:54:27.238Z,2564
2022-10-29T08:55:27.223Z,2544
2022-10-29T08:56:27.249Z,2500
2022-10-29T08:57:27.245Z,2440
2022-10-29T08:58:27.194Z,2376
2022-10-29T08:59:27.179Z,2284
2022-10-29T09:00:27.173Z,2200
2022-10-29T09:01:27.164Z,2104
2022-10-29T09:02:27.152Z,2064
2022-10-29T09:03:27.140Z,2028
2022-10-29T09:04:27.129Z,1980
2022-10-29T09:05:27.132Z,1940
2022-10-29T09:06:27.110Z,1964
2022-10-29T09:07:27.104Z,2060
2022-10-29T09:08:27.096Z,2148
2022-10-29T09:09:27.091Z,2244
2022-10-29T09:10:27.067Z,2388
2022-10-29T09:11:27.055Z,2504
2022-10-29T09:12:27.041Z,2532
2022-10-29T09:13:27.067Z,2472
2022-10-29T09:14:27.018Z,2392
2022-10-29T09:15:27.007Z,2304
2022-10-29T09:16:27.006Z,2252
2022-10-29T09:17:27.029Z,2200
2022-10-29T09:18:26.977Z,2252
2022-10-29T09:19:26.966Z,2364
2022-10-29T09:20:26.951Z,2528
2022-10-29T09:21:26.953Z,2768
2022-10-29T09:22:26.932Z,3032
2022-10-29T09:23:26.926Z,3236
2022-10-29T09:24:26.922Z,3320
2022-10-29T09:25:26.929Z,3224
2022-10-29T09:26:26.922Z,3140
2022-10-29T09:27:26.897Z,3112
2022-10-29T09:28:26.872Z,3180
2022-10-29T09:29:26.865Z,3216
2022-10-29T09:30:26.851Z,3324
2022-10-29T09:31:26.868Z,3396
2022-10-29T09:32:26.829Z,3580
2022-10-29T09:33:26.817Z,3828
2022-10-29T09:34:26.814Z,4052
2022-10-29T09:35:26.793Z,4332
2022-10-29T09:36:26.783Z,4828
2022-10-29T09:37:26.778Z,5652
2022-10-29T09:38:26.762Z,6528
2022-10-29T09:39:26.757Z,7480
2022-10-29T09:40:26.743Z,8104
2022-10-29T09:41:26.769Z,8224
2022-10-29T09:42:26.725Z,7932
2022-10-29T09:43:26.716Z,7744
2022-10-29T09:44:26.700Z,7872
2022-10-29T09:45:26.693Z,8056
2022-10-29T09:46:26.682Z,8204
2022-10-29T09:47:26.685Z,8384
2022-10-29T09:48:26.676Z,8664
2022-10-29T09:49:26.648Z,8764
2022-10-29T09:50:26.647Z,8788
2022-10-29T09:51:26.638Z,8848
2022-10-29T09:52:26.636Z,9204
2022-10-29T09:53:26.609Z,9492
2022-10-29T09:54:26.658Z,9908
2022-10-29T09:55:26.625Z,9844
2022-10-29T09:56:26.582Z,10148
2022-10-29T09:57:26.635Z,9852
2022-10-29T09:58:26.553Z,9564
2022-10-29T09:59:26.556Z,9740
2022-10-29T10:00:26.588Z,10384
2022-10-29T10:01:26.635Z,10628
2022-10-29T10:02:26.547Z,10628
2022-10-29T10:03:26.500Z,10516
2022-10-29T10:04:26.492Z,10696
2022-10-29T10:05:26.500Z,11356
2022-10-29T10:06:26.471Z,12448
2022-10-29T10:07:26.471Z,12728
2022-10-29T10:08:26.448Z,12064
2022-10-29T10:09:26.443Z,11800
2022-10-29T10:10:26.437Z,11388
2022-10-29T10:11:26.420Z,10472
2022-10-29T10:12:36.354Z,9808
2022-10-29T10:13:26.397Z,10040
2022-10-29T10:14:26.438Z,10436
2022-10-29T10:15:26.396Z,11284
2022-10-29T10:16:26.535Z,11152
2022-10-29T10:17:26.365Z,11168
2022-10-29T10:18:26.354Z,11368
2022-10-29T10:19:26.333Z,11860
2022-10-29T10:20:27.042Z,11492
2022-10-29T10:21:26.382Z,11164
2022-10-29T10:22:26.314Z,11268
2022-10-29T10:23:26.296Z,11796
2022-10-29T10:24:26.284Z,11968
2022-10-29T10:25:26.335Z,11572
2022-10-29T10:26:26.269Z,11636
2022-10-29T10:27:29.019Z,11048
2022-10-29T10:28:26.287Z,11288
2022-10-29T10:29:26.305Z,11816
2022-10-29T10:30:36.725Z,12216
2022-10-29T10:31:26.291Z,11324
2022-10-29T10:32:27.212Z,11664
2022-10-29T10:34:44.989Z,12868
2022-10-29T10:35:44.942Z,13124
2022-10-29T10:36:45.035Z,12556
2022-10-29T10:37:45.077Z,12044
2022-10-29T10:38:44.935Z,12016
2022-10-29T10:39:44.886Z,11760
2022-10-29T10:40:44.883Z,11308
2022-10-29T10:41:44.872Z,10344
2022-10-29T10:42:44.861Z,10216
2022-10-29T10:43:44.839Z,9384
2022-10-29T10:44:44.811Z,9020
2022-10-29T10:45:44.807Z,9468
2022-10-29T10:46:44.810Z,10216
2022-10-29T10:47:44.882Z,11024
2022-10-29T10:48:44.772Z,11884
2022-10-29T10:49:45.615Z,12848
2022-10-29T10:50:44.749Z,13072
2022-10-29T10:51:44.732Z,13868
2022-10-29T10:52:44.777Z,13668
2022-10-29T10:53:45.760Z,14172
2022-10-29T10:54:44.715Z,14500
2022-10-29T10:55:44.859Z,15456
2022-10-29T10:56:44.872Z,15344
2022-10-29T10:57:44.737Z,14536
2022-10-29T10:58:44.830Z,14252
2022-10-29T10:59:44.672Z,14132
2022-10-29T11:00:44.681Z,13764
2022-10-29T11:01:44.782Z,13580
2022-10-29T11:02:44.808Z,13524
2022-10-29T11:03:44.685Z,13872
2022-10-29T11:04:44.749Z,14048
2022-10-29T11:05:44.952Z,14208
2022-10-29T11:06:44.649Z,14780
2022-10-29T11:07:44.623Z,15116
2022-10-29T11:08:44.575Z,16328
2022-10-29T11:09:44.543Z,16004
2022-10-29T11:10:44.573Z,16300
2022-10-29T11:11:44.552Z,15528
2022-10-29T11:12:44.513Z,15992
2022-10-29T11:13:44.611Z,16264
2022-10-29T11:14:44.514Z,17344
2022-10-29T11:15:44.582Z,18048
2022-10-29T11:16:44.520Z,17216
2022-10-29T11:17:44.579Z,19168
2022-10-29T11:18:44.693Z,19616
2022-10-29T11:19:44.498Z,24864
2022-10-29T11:20:44.448Z,28640
2022-10-29T11:21:44.560Z,55520
2022-10-29T11:22:44.456Z,23008
2022-10-29T11:23:44.440Z,79264
2022-10-29T11:24:44.508Z,95840
2022-10-29T11:25:44.470Z,74496
2022-10-29T11:26:44.376Z,47968
2022-10-29T11:27:44.353Z,31072
2022-10-29T11:28:44.535Z,64544
2022-10-29T11:29:44.534Z,92128
2022-10-29T11:30:44.424Z,84544
2022-10-29T11:31:44.384Z,96928
2022-10-29T11:32:44.314Z,98720
2022-10-29T11:33:44.297Z,50688
2022-10-29T11:34:44.281Z,27968
2022-10-29T11:35:44.319Z,24064
2022-10-29T11:36:44.266Z,36288
2022-10-29T11:37:44.264Z,26496
2022-10-29T11:38:44.275Z,27872
2022-10-29T11:39:45.236Z,37952
2022-10-29T11:40:44.229Z,43072
2022-10-29T11:41:44.263Z,32736
2022-10-29T11:42:44.217Z,18912
2022-10-29T11:43:44.220Z,22368
2022-10-29T11:44:44.186Z,46816
2022-10-29T11:45:44.175Z,26656
2022-10-29T11:46:44.215Z,20160
2022-10-29T11:47:44.172Z,10828
2022-10-29T11:48:44.189Z,8032
2022-10-29T11:49:44.154Z,7312
2022-10-29T11:50:44.209Z,6968
2022-10-29T11:51:45.118Z,6904
2022-10-29T11:52:44.117Z,7336
2022-10-29T11:53:44.220Z,7036
2022-10-29T11:54:44.088Z,6372
2022-10-29T11:55:44.092Z,5876
2022-10-29T11:56:44.095Z,5408
2022-10-29T11:57:44.068Z,5304
2022-10-29T11:58:44.033Z,5412
2022-10-29T11:59:44.052Z,6552
2022-10-29T12:00:44.118Z,10068
2022-10-29T12:01:44.001Z,14600
2022-10-29T12:02:44.024Z,44896
2022-10-29T12:03:43.976Z,56128
2022-10-29T12:04:43.979Z,66624
2022-10-29T12:05:43.979Z,53728
2022-10-29T12:06:43.954Z,82496
2022-10-29T12:07:43.977Z,89280
2022-10-29T12:08:44.182Z,96416
2022-10-29T12:09:44.250Z,96800
2022-10-29T12:10:43.940Z,94560
2022-10-29T12:11:43.918Z,96448
2022-10-29T12:12:43.890Z,91488
2022-10-29T12:13:43.877Z,64224
2022-10-29T12:14:43.863Z,71104
2022-10-29T12:15:43.882Z,68224
2022-10-29T12:16:43.853Z,44992
2022-10-29T12:17:43.835Z,22144
2022-10-29T12:18:43.964Z,19840
2022-10-29T12:19:43.830Z,18144
2022-10-29T12:20:43.984Z,16432
2022-10-29T12:21:43.793Z,15836
2022-10-29T12:22:43.797Z,15292
2022-10-29T12:23:43.794Z,14608
2022-10-29T12:24:43.765Z,13640
2022-10-29T12:25:43.789Z,12560
2022-10-29T12:26:43.748Z,11588
2022-10-29T12:27:43.732Z,10876
2022-10-29T12:28:43.738Z,10392
2022-10-29T12:29:43.711Z,10180
2022-10-29T12:30:43.755Z,9744
2022-10-29T12:31:43.756Z,9172
2022-10-29T12:32:43.695Z,8872
2022-10-29T12:33:43.709Z,8664
2022-10-29T12:34:44.057Z,8480
2022-10-29T12:35:44.651Z,6548
2022-10-29T12:36:43.653Z,6280
2022-10-29T12:37:43.638Z,6960
2022-10-29T12:38:43.673Z,9336
2022-10-29T12:39:43.620Z,8948
2022-10-29T12:40:43.668Z,8188
2022-10-29T12:41:43.589Z,6960
2022-10-29T12:42:43.577Z,5868
2022-10-29T12:43:43.574Z,5380
2022-10-29T12:44:43.619Z,5060
2022-10-29T12:45:43.580Z,4792
2022-10-29T12:46:43.547Z,4512
2022-10-29T12:47:43.537Z,4424
2022-10-29T12:48:43.543Z,4720
2022-10-29T12:49:43.511Z,4904
2022-10-29T12:50:43.499Z,5288
2022-10-29T12:51:43.500Z,5468
2022-10-29T12:52:43.507Z,6032
2022-10-29T12:53:43.476Z,6532
2022-10-29T12:54:43.460Z,7312
2022-10-29T12:55:43.436Z,7424
2022-10-29T12:56:43.423Z,7180
2022-10-29T12:57:43.523Z,6868
2022-10-29T12:58:43.410Z,6504
2022-10-29T12:59:43.392Z,6104
2022-10-29T13:00:43.403Z,5728
2022-10-29T13:01:43.368Z,5652
2022-10-29T13:02:43.399Z,6248
2022-10-29T13:03:43.356Z,6464
2022-10-29T13:04:43.362Z,6264
2022-10-29T13:05:43.327Z,6120
2022-10-29T13:06:43.448Z,5684
2022-10-29T13:07:43.336Z,5404
2022-10-29T13:08:43.295Z,5412
2022-10-29T13:09:43.289Z,5300
2022-10-29T13:10:43.300Z,5592
2022-10-29T13:11:43.265Z,5792
2022-10-29T13:12:43.260Z,6368
2022-10-29T13:13:43.239Z,6684
2022-10-29T13:14:43.232Z,6672
2022-10-29T13:15:43.230Z,6616
2022-10-29T13:16:43.205Z,6524
2022-10-29T13:17:43.226Z,6008
2022-10-29T13:18:43.194Z,5552
2022-10-29T13:19:43.177Z,5216
2022-10-29T13:20:43.170Z,5176
2022-10-29T13:21:43.157Z,5356
2022-10-29T13:23:43.134Z,5100
2022-10-29T13:24:43.128Z,4596
2022-10-29T13:25:43.239Z,4076
2022-10-29T13:26:43.099Z,3864
2022-10-29T13:27:43.173Z,3904
2022-10-29T13:28:43.183Z,4164
2022-10-29T13:29:43.100Z,4776
2022-10-29T13:30:43.079Z,5628
2022-10-29T13:31:43.061Z,5856
2022-10-29T13:32:43.055Z,5664
2022-10-29T13:33:43.033Z,5504
2022-10-29T13:34:43.106Z,5316
2022-10-29T13:35:43.016Z,4940
2022-10-29T13:36:43.004Z,4980
2022-10-29T13:37:42.998Z,5384
2022-10-29T13:38:42.987Z,6032
2022-10-29T13:39:42.989Z,6124
2022-10-29T13:40:42.960Z,6236
2022-10-29T13:41:42.949Z,5220
2022-10-29T13:42:42.942Z,4336
2022-10-29T13:43:42.934Z,3952
2022-10-29T13:44:42.930Z,4056
2022-10-29T13:45:42.917Z,4156
2022-10-29T13:46:42.903Z,4900
2022-10-29T13:47:42.894Z,5252
2022-10-29T13:48:42.884Z,5368